createdAt,value
2022-08-14T00:02:04.787Z,99692.03
2022-08-14T00:05:13.104Z,99685.06
2022-08-14T00:08:15.964Z,99692.91
2022-08-14T00:11:38.955Z,99686.59
2022-08-14T00:14:46.464Z,99689.66
2022-08-14T00:17:56.343Z,99686.88
2022-08-14T00:21:00.984Z,99683.84
2022-08-14T00:24:04.669Z,99680.50
2022-08-14T00:27:07.327Z,99674.72
2022-08-14T00:30:14.389Z,99679.09
2022-08-14T00:33:20.215Z,99681.03
2022-08-14T00:36:35.754Z,99682.13
2022-08-14T00:39:47.248Z,99675.47
2022-08-14T00:42:55.302Z,99674.84
2022-08-14T00:46:02.827Z,99681.22
2022-08-14T00:49:11.634Z,99677.28
2022-08-14T00:52:18.614Z,99682.19
2022-08-14T00:55:21.892Z,99678.16
2022-08-14T00:58:32.906Z,99678.78
2022-08-14T01:01:37.262Z,99685.75
2022-08-14T01:04:53.960Z,99684.78
2022-08-14T01:07:58.678Z,99685.34
2022-08-14T01:11:01.724Z,99679.31
2022-08-14T01:14:25.732Z,99686.84
2022-08-14T01:17:52.309Z,99691.00
2022-08-14T01:21:09.533Z,99690.19
2022-08-14T01:24:22.887Z,99690.06
2022-08-14T01:27:53.414Z,99693.03
2022-08-14T01:31:01.923Z,99698.00
2022-08-14T01:35:20.775Z,99701.97
2022-08-14T01:37:29.366Z,99702.69
2022-08-14T01:40:40.801Z,99699.62
2022-08-14T01:43:56.691Z,99700.41
2022-08-14T01:47:01.981Z,99698.50
2022-08-14T01:50:09.408Z,99701.91
2022-08-14T01:53:13.428Z,99700.69
2022-08-14T01:56:18.908Z,99704.34
2022-08-14T01:59:37.500Z,99710.50
2022-08-14T02:02:42.744Z,99710.13
2022-08-14T02:05:49.799Z,99708.22
2022-08-14T02:08:55.422Z,99706.44
2022-08-14T02:11:59.673Z,99710.63
2022-08-14T02:15:09.357Z,99711.16
2022-08-14T02:18:15.166Z,99703.97
2022-08-14T02:21:19.562Z,99709.25
2022-08-14T02:24:39.646Z,99718.37
2022-08-14T02:28:25.439Z,99717.44
2022-08-14T02:31:09.721Z,99720.72
2022-08-14T02:34:43.292Z,99711.69
2022-08-14T02:37:49.985Z,99713.22
2022-08-14T02:40:52.778Z,99706.84
2022-08-14T02:43:55.751Z,99703.47
2022-08-14T02:47:14.753Z,99706.44
2022-08-14T02:50:20.273Z,99710.13
2022-08-14T02:53:31.561Z,99713.91
2022-08-14T02:57:16.529Z,99717.69
2022-08-14T03:00:02.607Z,99717.13
2022-08-14T03:03:09.700Z,99713.97
2022-08-14T03:06:14.914Z,99721.84
2022-08-14T03:09:25.790Z,99708.75
2022-08-14T03:12:48.512Z,99710.91
2022-08-14T03:15:55.627Z,99715.47
2022-08-14T03:19:01.036Z,99716.16
2022-08-14T03:22:06.676Z,99717.03
2022-08-14T03:25:12.410Z,99727.88
2022-08-14T03:28:29.603Z,99728.09
2022-08-14T03:31:37.535Z,99723.91
2022-08-14T03:34:52.730Z,99723.50
2022-08-14T03:39:11.674Z,99720.19
2022-08-14T03:41:35.566Z,99713.34
2022-08-14T03:45:19.644Z,99718.19
2022-08-14T03:48:31.043Z,99717.97
2022-08-14T03:51:35.644Z,99718.25
2022-08-14T03:54:38.792Z,99722.91
2022-08-14T03:57:44.296Z,99730.03
2022-08-14T04:00:47.993Z,99720.13
2022-08-14T04:03:54.898Z,99726.72
2022-08-14T04:06:59.275Z,99723.16
2022-08-14T04:10:02.898Z,99728.50
2022-08-14T04:13:06.918Z,99726.78
2022-08-14T04:16:20.886Z,99732.34
2022-08-14T04:19:24.826Z,99732.09
2022-08-14T04:22:36.958Z,99733.31
2022-08-14T04:25:40.412Z,99729.19
2022-08-14T04:29:07.370Z,99729.19
2022-08-14T04:32:58.018Z,99722.22
2022-08-14T04:35:55.473Z,99730.06
2022-08-14T04:39:13.559Z,99739.91
2022-08-14T04:42:39.467Z,99724.41
2022-08-14T04:45:51.291Z,99727.59
2022-08-14T04:48:59.965Z,99733.34
2022-08-14T04:52:15.430Z,99731.12
2022-08-14T04:55:27.801Z,99728.50
2022-08-14T04:58:33.765Z,99729.47
2022-08-14T05:01:39.832Z,99734.59
2022-08-14T05:04:45.142Z,99720.84
2022-08-14T05:08:01.232Z,99713.38
2022-08-14T05:11:07.010Z,99726.78
2022-08-14T05:14:33.992Z,99721.88
2022-08-14T05:17:58.905Z,99724.59
2022-08-14T05:22:00.261Z,99718.03
2022-08-14T05:24:32.597Z,99725.03
2022-08-14T05:27:36.944Z,99715.94
2022-08-14T05:30:43.944Z,99713.41
2022-08-14T05:33:54.911Z,99716.03
2022-08-14T05:37:02.953Z,99726.06
2022-08-14T05:40:10.574Z,99720.25
2022-08-14T05:43:16.047Z,99722.47
2022-08-14T05:46:23.124Z,99719.31
2022-08-14T05:49:33.367Z,99728.91
2022-08-14T05:52:39.086Z,99726.53
2022-08-14T05:55:44.267Z,99725.75
2022-08-14T05:58:47.915Z,99720.19
2022-08-14T06:01:51.103Z,99715.12
2022-08-14T06:04:54.184Z,99724.84
2022-08-14T06:08:02.250Z,99727.66
2022-08-14T06:11:14.756Z,99729.38
2022-08-14T06:14:24.120Z,99732.94
2022-08-14T06:17:27.853Z,99733.75
2022-08-14T06:20:41.607Z,99729.38
2022-08-14T06:23:44.653Z,99727.56
2022-08-14T06:26:56.803Z,99726.66
2022-08-14T06:30:10.801Z,99723.25
2022-08-14T06:33:15.600Z,99720.66
2022-08-14T06:36:19.171Z,99726.63
2022-08-14T06:39:36.668Z,99717.69
2022-08-14T06:42:41.902Z,99712.47
2022-08-14T06:45:53.959Z,99710.34
2022-08-14T06:48:57.644Z,99704.34
2022-08-14T06:52:00.975Z,99702.84
2022-08-14T06:55:07.338Z,99684.34
2022-08-14T06:58:28.677Z,99695.78
2022-08-14T07:01:51.377Z,99694.94
2022-08-14T07:05:23.066Z,99699.72
2022-08-14T07:08:31.522Z,99699.69
2022-08-14T07:11:34.859Z,99700.12
2022-08-14T07:14:38.031Z,99697.91
2022-08-14T07:17:52.027Z,99702.75
2022-08-14T07:20:57.232Z,99695.25
2022-08-14T07:23:59.903Z,99686.84
2022-08-14T07:27:02.910Z,99676.44
2022-08-14T07:30:05.912Z,99679.25
2022-08-14T07:33:13.641Z,99671.53
2022-08-14T07:36:27.415Z,99683.41
2022-08-14T07:39:34.478Z,99673.16
2022-08-14T07:42:41.085Z,99674.78
2022-08-14T07:45:45.772Z,99674.53
2022-08-14T07:48:53.487Z,99678.41
2022-08-14T07:52:00.209Z,99673.03
2022-08-14T07:55:03.245Z,99668.97
2022-08-14T07:58:07.604Z,99670.53
2022-08-14T08:01:31.065Z,99659.31
2022-08-14T08:04:37.325Z,99663.97
2022-08-14T08:07:42.550Z,99660.06
2022-08-14T08:11:02.866Z,99655.47
2022-08-14T08:14:10.651Z,99659.78
2022-08-14T08:17:20.775Z,99663.22
2022-08-14T08:20:27.256Z,99652.97
2022-08-14T08:23:40.260Z,99651.91
2022-08-14T08:26:46.289Z,99650.22
2022-08-14T08:29:50.853Z,99656.75
2022-08-14T08:32:55.696Z,99645.53
2022-08-14T08:36:01.374Z,99645.44
2022-08-14T08:39:14.552Z,99648.56
2022-08-14T08:42:31.377Z,99653.53
2022-08-14T08:45:41.244Z,99642.94
2022-08-14T08:48:53.592Z,99639.44
2022-08-14T08:52:04.488Z,99639.41
2022-08-14T08:55:08.078Z,99648.06
2022-08-14T08:58:19.816Z,99632.91
2022-08-14T09:01:29.547Z,99637.44
2022-08-14T09:04:53.610Z,99632.06
2022-08-14T09:08:26.525Z,99635.03
2022-08-14T09:11:36.201Z,99629.31
2022-08-14T09:14:39.917Z,99630.16
2022-08-14T09:17:46.310Z,99620.19
2022-08-14T09:20:58.816Z,99622.66
2022-08-14T09:24:29.134Z,99622.22
2022-08-14T09:27:26.501Z,99609.59
2022-08-14T09:30:32.096Z,99612.09
2022-08-14T09:34:01.235Z,99598.78
2022-08-14T09:37:37.830Z,99601.88
2022-08-14T09:41:19.917Z,99595.56
2022-08-14T09:44:45.719Z,99588.16
2022-08-14T09:47:52.075Z,99591.25
2022-08-14T09:50:57.678Z,99594.47
2022-08-14T09:54:19.354Z,99586.94
2022-08-14T09:57:37.582Z,99592.03
2022-08-14T10:00:52.739Z,99584.94
2022-08-14T10:03:58.484Z,99586.16
2022-08-14T10:07:02.450Z,99587.28
2022-08-14T10:10:23.409Z,99586.81
2022-08-14T10:13:27.034Z,99573.91
2022-08-14T10:16:53.078Z,99590.59
2022-08-14T10:19:58.013Z,99584.34
2022-08-14T10:23:22.318Z,99570.19
2022-08-14T10:26:28.168Z,99568.81
2022-08-14T10:29:38.735Z,99572.81
2022-08-14T10:32:49.662Z,99570.91
2022-08-14T10:35:56.638Z,99569.09
2022-08-14T10:39:04.667Z,99571.97
2022-08-14T10:42:18.068Z,99570.28
2022-08-14T10:45:25.859Z,99566.69
2022-08-14T10:48:36.903Z,99565.00
2022-08-14T10:51:42.400Z,99556.38
2022-08-14T10:54:47.528Z,99553.84
2022-08-14T10:57:57.727Z,99551.19
2022-08-14T11:01:08.358Z,99540.50
2022-08-14T11:04:27.858Z,99542.28
2022-08-14T11:07:32.645Z,99550.28
2022-08-14T11:10:47.948Z,99542.53
2022-08-14T11:13:51.239Z,99541.09
2022-08-14T11:16:54.730Z,99531.66
2022-08-14T11:20:00.993Z,99520.72
2022-08-14T11:23:06.674Z,99527.75
2022-08-14T11:26:16.509Z,99524.31
2022-08-14T11:29:24.555Z,99523.59
2022-08-14T11:32:31.254Z,99509.06
2022-08-14T11:35:47.285Z,99513.22
2022-08-14T11:38:53.784Z,99507.13
2022-08-14T11:41:57.935Z,99516.09
2022-08-14T11:45:10.958Z,99503.69
2022-08-14T11:49:01.938Z,99501.47
2022-08-14T11:51:54.697Z,99492.78
2022-08-14T11:54:59.003Z,99488.50
2022-08-14T11:58:11.837Z,99487.44
2022-08-14T12:01:15.175Z,99489.56
2022-08-14T12:04:32.085Z,99482.94
2022-08-14T12:07:37.028Z,99471.78
2022-08-14T12:10:57.582Z,99475.25
2022-08-14T12:14:13.408Z,99472.25
2022-08-14T12:17:47.559Z,99463.94
2022-08-14T12:20:59.384Z,99460.84
2022-08-14T12:24:09.482Z,99454.06
2022-08-14T12:27:52.504Z,99449.66
2022-08-14T12:30:57.111Z,99445.44
2022-08-14T12:34:08.754Z,99444.37
2022-08-14T12:37:13.878Z,99451.69
2022-08-14T12:40:20.621Z,99446.75
2022-08-14T12:43:24.978Z,99442.31
2022-08-14T12:46:31.011Z,99440.44
2022-08-14T12:49:34.618Z,99437.22
2022-08-14T12:52:55.981Z,99430.88
2022-08-14T12:56:21.898Z,99435.75
2022-08-14T12:59:37.209Z,99440.41
2022-08-14T13:02:54.863Z,99434.72
2022-08-14T13:05:58.411Z,99426.78
2022-08-14T13:09:11.247Z,99441.12
2022-08-14T13:12:34.933Z,99431.69
2022-08-14T13:15:56.278Z,99442.69
2022-08-14T13:19:01.956Z,99424.00
2022-08-14T13:22:10.273Z,99421.22
2022-08-14T13:25:25.862Z,99416.50
2022-08-14T13:28:32.753Z,99410.66
2022-08-14T13:31:39.281Z,99405.31
2022-08-14T13:34:46.049Z,99420.22
2022-08-14T13:37:53.658Z,99418.88
2022-08-14T13:40:57.578Z,99412.81
2022-08-14T13:44:00.856Z,99411.19
2022-08-14T13:47:08.848Z,99403.69
2022-08-14T13:50:18.200Z,99411.34
2022-08-14T13:53:24.202Z,99408.84
2022-08-14T13:56:36.698Z,99402.94
2022-08-14T13:59:46.143Z,99402.66
2022-08-14T14:02:52.773Z,99400.22
2022-08-14T14:05:59.078Z,99399.09
2022-08-14T14:09:03.067Z,99401.97
2022-08-14T14:12:37.745Z,99401.50
2022-08-14T14:15:57.917Z,99398.16
2022-08-14T14:19:09.870Z,99392.47
2022-08-14T14:22:35.461Z,99388.22
2022-08-14T14:25:51.218Z,99393.00
2022-08-14T14:29:01.855Z,99392.34
2022-08-14T14:32:05.011Z,99384.72
2022-08-14T14:35:11.709Z,99383.47
2022-08-14T14:38:17.103Z,99375.50
2022-08-14T14:41:22.727Z,99376.25
2022-08-14T14:44:32.875Z,99378.59
2022-08-14T14:47:38.154Z,99383.81
2022-08-14T14:50:42.288Z,99384.69
2022-08-14T14:53:46.858Z,99381.34
2022-08-14T14:56:54.177Z,99376.09
2022-08-14T14:59:57.963Z,99379.81
2022-08-14T15:03:01.156Z,99378.97
2022-08-14T15:06:05.034Z,99376.59
2022-08-14T15:09:09.191Z,99379.69
2022-08-14T15:12:56.375Z,99379.34
2022-08-14T15:15:44.221Z,99382.75
2022-08-14T15:18:49.140Z,99383.56
2022-08-14T15:21:52.437Z,99380.72
2022-08-14T15:24:56.421Z,99386.38
2022-08-14T15:28:01.011Z,99387.75
2022-08-14T15:31:04.947Z,99386.97
2022-08-14T15:34:44.603Z,99375.00
2022-08-14T15:37:35.189Z,99377.28
2022-08-14T15:40:51.645Z,99382.84
2022-08-14T15:44:00.186Z,99380.28
2022-08-14T15:47:07.321Z,99385.00
2022-08-14T15:50:10.171Z,99382.72
2022-08-14T15:53:13.345Z,99381.34
2022-08-14T15:56:33.038Z,99368.37
2022-08-14T15:59:59.909Z,99372.78
2022-08-14T16:03:03.889Z,99369.75
2022-08-14T16:06:15.651Z,99374.66
2022-08-14T16:09:21.266Z,99373.06
2022-08-14T16:12:41.390Z,99374.13
2022-08-14T16:15:53.361Z,99374.94
2022-08-14T16:19:00.394Z,99370.72
2022-08-14T16:22:58.251Z,99363.81
2022-08-14T16:25:34.484Z,99367.44
2022-08-14T16:28:38.377Z,99362.50
2022-08-14T16:31:43.975Z,99370.59
2022-08-14T16:34:50.995Z,99371.06
2022-08-14T16:38:00.289Z,99372.09
2022-08-14T16:41:30.824Z,99364.56
2022-08-14T16:44:40.886Z,99369.97
2022-08-14T16:47:43.918Z,99364.47
2022-08-14T16:50:51.793Z,99362.34
2022-08-14T16:53:56.606Z,99360.81
2022-08-14T16:57:24.531Z,99367.34
2022-08-14T17:00:43.708Z,99366.84
2022-08-14T17:04:14.958Z,99356.97
2022-08-14T17:07:28.560Z,99357.47
2022-08-14T17:10:55.902Z,99359.56
2022-08-14T17:14:01.526Z,99356.22
2022-08-14T17:17:04.901Z,99355.22
2022-08-14T17:20:53.294Z,99358.09
2022-08-14T17:23:50.054Z,99357.06
2022-08-14T17:26:55.113Z,99363.56
2022-08-14T17:29:58.667Z,99359.69
2022-08-14T17:33:13.259Z,99361.25
2022-08-14T17:36:24.174Z,99371.66
2022-08-14T17:39:27.686Z,99362.31
2022-08-14T17:42:53.486Z,99363.84
2022-08-14T17:45:56.597Z,99369.28
2022-08-14T17:49:15.156Z,99373.41
2022-08-14T17:52:34.474Z,99369.53
2022-08-14T17:56:03.514Z,99385.06
2022-08-14T17:59:07.106Z,99383.19
2022-08-14T18:02:16.410Z,99382.91
2022-08-14T18:05:23.063Z,99377.41
2022-08-14T18:08:44.587Z,99383.37
2022-08-14T18:11:48.011Z,99384.31
2022-08-14T18:14:52.786Z,99392.56
2022-08-14T18:17:57.781Z,99394.62
2022-08-14T18:21:42.925Z,99388.94
2022-08-14T18:24:29.970Z,99400.09
2022-08-14T18:27:45.653Z,99399.28
2022-08-14T18:30:58.221Z,99410.19
2022-08-14T18:34:12.137Z,99406.72
2022-08-14T18:37:21.248Z,99410.59
2022-08-14T18:40:35.199Z,99405.94
2022-08-14T18:43:59.240Z,99407.28
2022-08-14T18:47:08.559Z,99394.16
2022-08-14T18:50:27.025Z,99397.88
2022-08-14T18:53:54.560Z,99404.38
2022-08-14T18:57:03.399Z,99402.47
2022-08-14T19:00:33.334Z,99394.44
2022-08-14T19:03:39.519Z,99399.03
2022-08-14T19:06:56.534Z,99387.06
2022-08-14T19:10:02.177Z,99385.94
2022-08-14T19:13:12.363Z,99381.91
2022-08-14T19:16:23.351Z,99383.16
2022-08-14T19:19:38.831Z,99390.00
2022-08-14T19:22:42.495Z,99379.38
2022-08-14T19:25:52.995Z,99388.28
2022-08-14T19:28:58.721Z,99388.03
2022-08-14T19:32:04.530Z,99388.38
2022-08-14T19:35:19.550Z,99400.03
2022-08-14T19:38:52.471Z,99396.56
2022-08-14T19:41:58.722Z,99396.97
2022-08-14T19:45:03.251Z,99400.94
2022-08-14T19:48:14.493Z,99401.56
2022-08-14T19:51:19.792Z,99401.69
2022-08-14T19:54:34.667Z,99403.34
2022-08-14T19:57:38.294Z,99398.25
2022-08-14T20:00:56.324Z,99407.94
2022-08-14T20:04:02.392Z,99405.22
2022-08-14T20:07:06.444Z,99415.88
2022-08-14T20:11:06.627Z,99425.16
2022-08-14T20:14:10.181Z,99412.94
2022-08-14T20:17:22.905Z,99402.59
2022-08-14T20:20:31.914Z,99395.53
2022-08-14T20:23:38.607Z,99395.44
2022-08-14T20:26:46.879Z,99391.59
2022-08-14T20:33:47.955Z,99386.88
2022-08-14T20:37:04.350Z,99390.00
2022-08-14T20:40:23.853Z,99394.44
2022-08-14T20:43:52.778Z,99390.06
2022-08-14T20:47:01.186Z,99399.31
2022-08-14T20:50:25.430Z,99402.81
2022-08-14T20:53:35.917Z,99402.16
2022-08-14T20:56:41.897Z,99407.25
2022-08-14T20:59:57.316Z,99404.44
2022-08-14T21:03:32.018Z,99399.66
2022-08-14T21:07:23.434Z,99408.81
2022-08-14T21:10:36.317Z,99411.06
2022-08-14T21:14:20.807Z,99407.88
2022-08-14T21:17:01.494Z,99415.47
2022-08-14T21:20:25.753Z,99423.16
2022-08-14T21:23:32.560Z,99432.47
2022-08-14T21:26:52.070Z,99422.66
2022-08-14T21:29:59.878Z,99425.00
2022-08-14T21:33:04.857Z,99421.37
2022-08-14T21:36:12.212Z,99414.63
2022-08-14T21:39:25.123Z,99416.53
2022-08-14T21:42:29.396Z,99417.62
2022-08-14T21:45:35.701Z,99424.91
2022-08-14T21:48:39.091Z,99418.59
2022-08-14T21:51:54.493Z,99418.28
2022-08-14T21:55:09.709Z,99418.00
2022-08-14T21:58:53.113Z,99419.88
2022-08-14T22:02:00.035Z,99413.75
2022-08-14T22:04:59.321Z,99423.19
2022-08-14T22:08:06.780Z,99417.03
2022-08-14T22:11:09.839Z,99420.03
2022-08-14T22:14:25.133Z,99422.81
2022-08-14T22:17:32.416Z,99417.38
2022-08-14T22:20:37.145Z,99413.28
2022-08-14T22:23:40.222Z,99415.47
2022-08-14T22:26:46.427Z,99411.38
2022-08-14T22:29:54.787Z,99412.19
2022-08-14T22:33:02.022Z,99402.16
2022-08-14T22:36:26.689Z,99412.66
2022-08-14T22:40:17.838Z,99405.44
2022-08-14T22:43:01.096Z,99399.91
2022-08-14T22:46:14.318Z,99410.03
2022-08-14T22:50:30.863Z,99414.13
2022-08-14T22:52:49.473Z,99420.94
2022-08-14T22:55:52.992Z,99418.34
2022-08-14T22:58:57.985Z,99415.50
2022-08-14T23:02:30.403Z,99422.78
2022-08-14T23:05:39.657Z,99413.56
2022-08-14T23:08:58.491Z,99405.22
2022-08-14T23:12:04.404Z,99407.69
2022-08-14T23:15:29.875Z,99411.06
2022-08-14T23:18:33.099Z,99401.59
2022-08-14T23:21:36.717Z,99397.44
2022-08-14T23:24:50.971Z,99399.66
2022-08-14T23:28:03.732Z,99403.50
2022-08-14T23:31:14.061Z,99397.59
2022-08-14T23:34:21.281Z,99383.50
2022-08-14T23:37:26.803Z,99394.53
2022-08-14T23:40:31.351Z,99389.53
2022-08-14T23:43:36.317Z,99399.84
2022-08-14T23:46:39.961Z,99403.09
2022-08-14T23:50:00.366Z,99395.16
2022-08-14T23:53:28.053Z,99395.16
2022-08-14T23:56:42.747Z,99393.75
2022-08-14T23:59:54.378Z,99390.34
